Time;durP1;ratioP1;P1;durP2;ratioP2;P2;SDS_P1;SDS_P2;PMS_P1;PMS_P2;Temp;Humidity;BMP_temperature;BMP_pressure;BME280_temperature;BME280_humidity;BME280_pressure;Samples;Min_cycle;Max_cycle;Signal;HPM_P1;HPM_P2
2023/01/02 00:01:43;;;;;;;12.60;3.72;;;;;;;10.70;42.86;95417.91;5008381;28;20091;-74
2023/01/02 00:04:08;;;;;;;16.92;8.75;;;;;;;10.78;42.88;95409.81;5002327;28;20130;-73
2023/01/02 00:06:34;;;;;;;14.88;9.00;;;;;;;11.12;42.15;95416.44;5004962;28;20540;-74
2023/01/02 00:09:04;;;;;;;15.80;9.80;;;;;;;11.11;42.07;95414.78;5002596;28;20065;-74
2023/01/02 00:11:30;;;;;;;15.98;6.50;;;;;;;11.45;41.92;95415.16;5004828;28;20052;-74
2023/01/02 00:13:55;;;;;;;9.75;3.40;;;;;;;10.16;43.38;95419.81;4987399;28;20062;-74
2023/01/02 00:16:21;;;;;;;18.23;10.93;;;;;;;10.65;43.13;95405.16;5009525;28;20067;-74
2023/01/02 00:18:46;;;;;;;19.70;10.27;;;;;;;10.84;42.98;95405.59;5006090;28;20450;-74
2023/01/02 00:21:11;;;;;;;17.83;9.88;;;;;;;9.65;45.84;95391.94;5004262;28;20068;-74
2023/01/02 00:23:37;;;;;;;12.55;3.70;;;;;;;10.59;43.45;95401.41;5002427;28;20041;-74
2023/01/02 00:26:03;;;;;;;16.30;8.98;;;;;;;10.72;43.04;95391.94;5004255;28;20080;-74
2023/01/02 00:28:28;;;;;;;16.63;10.00;;;;;;;10.85;42.41;95397.44;5006479;28;20092;-74
2023/01/02 00:30:53;;;;;;;18.45;11.52;;;;;;;10.85;42.65;95400.09;5005910;28;20054;-74
2023/01/02 00:33:19;;;;;;;19.17;8.60;;;;;;;10.93;42.57;95395.69;4998987;28;20066;-74
2023/01/02 00:35:44;;;;;;;22.75;13.65;;;;;;;10.86;42.51;95400.94;5007739;28;20038;-74
2023/01/02 00:38:10;;;;;;;21.25;12.48;;;;;;;10.68;43.11;95390.66;5000886;28;20056;-74
2023/01/02 00:40:35;;;;;;;16.80;7.38;;;;;;;10.99;42.32;95386.97;5002018;28;20045;-74
2023/01/02 00:43:01;;;;;;;15.68;7.90;;;;;;;10.77;42.75;95386.06;5000087;28;20089;-74
2023/01/02 00:45:26;;;;;;;13.25;6.20;;;;;;;11.12;41.89;95379.13;4999791;28;20042;-74
2023/01/02 00:47:51;;;;;;;12.40;5.55;;;;;;;11.11;41.75;95374.81;5008409;28;20107;-74
2023/01/02 00:50:17;;;;;;;15.07;7.53;;;;;;;11.07;41.98;95376.19;4989341;28;20599;-74
2023/01/02 00:52:42;;;;;;;13.80;5.35;;;;;;;10.91;42.14;95373.75;4997541;28;20079;-74
2023/01/02 00:55:08;;;;;;;10.95;4.43;;;;;;;10.82;42.43;95381.84;5002985;28;20059;-74
2023/01/02 00:57:33;;;;;;;16.48;3.15;;;;;;;10.27;43.77;95381.28;5007384;28;20090;-74
2023/01/02 00:59:59;;;;;;;11.73;3.22;;;;;;;10.55;43.00;95384.16;4999052;28;20106;-74
2023/01/02 01:02:24;;;;;;;11.48;6.63;;;;;;;10.17;44.50;95382.34;4999495;28;20050;-74
2023/01/02 01:04:49;;;;;;;11.63;3.45;;;;;;;9.67;45.02;95381.94;5003368;28;20480;-74
2023/01/02 01:07:15;;;;;;;10.38;3.10;;;;;;;10.34;43.83;95380.34;5002914;28;20896;-74
2023/01/02 01:09:40;;;;;;;13.15;6.45;;;;;;;10.83;42.83;95379.97;5000077;28;20541;-73
2023/01/02 01:12:06;;;;;;;11.35;3.30;;;;;;;10.16;44.21;95379.91;5003600;28;20076;-74
2023/01/02 01:14:31;;;;;;;14.05;6.32;;;;;;;10.53;43.45;95377.31;5019203;28;20131;-74
2023/01/02 01:16:56;;;;;;;12.18;3.33;;;;;;;10.87;42.67;95387.44;5010073;28;20084;-74
2023/01/02 01:19:22;;;;;;;15.07;9.60;;;;;;;10.61;43.07;95379.94;5001377;28;20098;-74
2023/01/02 01:21:47;;;;;;;10.70;3.13;;;;;;;10.40;43.24;95380.66;5000722;28;20684;-73
2023/01/02 01:24:13;;;;;;;16.50;6.30;;;;;;;10.28;43.71;95372.28;5000669;28;20056;-73
2023/01/02 01:26:39;;;;;;;15.70;8.18;;;;;;;10.62;42.97;95366.41;5000426;28;20435;-74
2023/01/02 01:29:04;;;;;;;12.75;4.55;;;;;;;10.90;42.42;95364.91;4985666;28;20418;-74
2023/01/02 01:31:30;;;;;;;10.55;4.32;;;;;;;10.15;44.12;95367.59;4999212;28;20052;-74
2023/01/02 01:33:55;;;;;;;9.07;3.83;;;;;;;10.49;43.26;95374.22;4999344;28;20075;-74
2023/01/02 01:36:22;;;;;;;10.23;3.33;;;;;;;10.37;43.40;95384.47;5004071;28;20519;-74
2023/01/02 01:38:48;;;;;;;16.20;5.93;;;;;;;10.44;43.25;95372.09;4985884;28;20048;-73
2023/01/02 01:41:24;;;;;;;24.08;13.88;;;;;;;10.02;44.50;95369.00;5010099;28;20163;-73
2023/01/02 01:43:51;;;;;;;12.88;6.32;;;;;;;10.25;43.54;95359.34;4998839;28;20074;-73
2023/01/02 01:46:37;;;;;;;9.38;2.83;;;;;;;10.47;42.95;95368.25;4987947;28;20532;-74
2023/01/02 01:49:19;;;;;;;15.68;7.85;;;;;;;9.78;44.72;95380.66;4999666;28;20650;-73
2023/01/02 01:51:48;;;;;;;15.13;7.70;;;;;;;9.99;44.20;95366.69;5004013;28;20042;-74
2023/01/02 01:54:14;;;;;;;15.32;7.25;;;;;;;10.39;43.15;95376.31;4998918;28;20141;-73
2023/01/02 01:56:42;;;;;;;10.73;3.88;;;;;;;9.56;45.21;95380.53;5000220;28;20170;-74
2023/01/02 01:59:08;;;;;;;14.80;6.15;;;;;;;10.35;43.26;95378.53;4986918;28;20043;-73
2023/01/02 02:01:34;;;;;;;14.20;6.20;;;;;;;9.71;44.92;95383.22;4983801;28;20543;-74
2023/01/02 02:03:59;;;;;;;17.60;8.85;;;;;;;9.92;44.36;95376.41;4996822;28;20088;-74
2023/01/02 02:06:24;;;;;;;15.63;9.68;;;;;;;8.81;46.79;95386.22;5005019;28;20047;-73
2023/01/02 02:08:54;;;;;;;25.63;15.02;;;;;;;9.62;44.71;95382.44;5004280;28;20095;-73
2023/01/02 02:11:20;;;;;;;14.18;3.05;;;;;;;9.54;44.72;95394.00;5000310;28;20458;-73
2023/01/02 02:13:45;;;;;;;12.40;7.72;;;;;;;10.17;43.60;95389.53;4999297;28;20088;-73
2023/01/02 02:16:16;;;;;;;10.25;3.10;;;;;;;9.11;45.62;95388.28;4988757;28;20090;-73
2023/01/02 02:19:05;;;;;;;16.92;10.65;;;;;;;10.04;43.99;95382.97;5023430;28;20130;-74
2023/01/02 02:22:18;;;;;;;10.98;2.83;;;;;;;9.48;44.65;95378.72;5002875;28;20082;-73
2023/01/02 02:25:20;;;;;;;9.48;3.70;;;;;;;9.21;45.51;95378.25;5001970;28;20083;-73
2023/01/02 02:27:59;;;;;;;10.35;3.20;;;;;;;9.72;44.38;95369.75;5002448;28;20123;-73
2023/01/02 02:30:35;;;;;;;11.65;3.22;;;;;;;10.07;43.70;95366.66;5004758;28;20047;-74
2023/01/02 02:33:17;;;;;;;24.65;12.02;;;;;;;10.28;43.30;95361.63;5007381;28;20084;-74
2023/01/02 02:35:55;;;;;;;10.45;3.88;;;;;;;10.11;43.07;95361.81;4988495;28;20486;-73
2023/01/02 02:38:30;;;;;;;13.80;5.28;;;;;;;10.54;42.57;95358.50;5006451;28;20071;-73
2023/01/02 02:41:01;;;;;;;6.55;2.80;;;;;;;10.69;42.07;95353.19;5004885;28;20103;-74
2023/01/02 02:43:55;;;;;;;9.98;3.00;;;;;;;10.68;41.80;95351.53;5002070;28;20732;-73
2023/01/02 02:46:27;;;;;;;13.52;3.13;;;;;;;10.40;42.00;95354.84;4995498;28;20067;-73
2023/01/02 02:48:55;;;;;;;12.52;2.97;;;;;;;10.00;43.39;95349.75;4987289;28;20463;-73
2023/01/02 02:51:36;;;;;;;;;;;;;;;9.77;44.17;95349.78;5007863;28;20141;-73
2023/01/02 02:54:12;;;;;;;10.90;3.42;;;;;;;10.23;42.62;95349.72;5002024;28;19958;-73
2023/01/02 02:56:37;;;;;;;16.58;8.38;;;;;;;10.46;42.64;95347.97;4986211;28;20071;-73
2023/01/02 02:59:03;;;;;;;14.60;8.90;;;;;;;10.43;42.67;95343.00;5011318;28;20070;-73
2023/01/02 03:01:28;;;;;;;15.20;5.85;;;;;;;10.34;42.54;95348.41;5005465;28;20072;-73
2023/01/02 03:03:54;;;;;;;17.33;9.73;;;;;;;10.42;42.75;95342.19;4989692;28;20090;-73
2023/01/02 03:06:44;;;;;;;12.95;3.80;;;;;;;10.68;42.22;95319.56;5004650;28;20464;-73
2023/01/02 03:09:32;;;;;;;19.25;7.00;;;;;;;10.95;41.68;95329.75;5003541;28;20126;-73
2023/01/02 03:11:57;;;;;;;17.85;10.65;;;;;;;10.72;41.95;95328.03;5006066;28;20089;-73
2023/01/02 03:14:39;;;;;;;12.97;5.80;;;;;;;10.38;42.59;95340.91;5006229;28;20060;-73
2023/01/02 03:17:07;;;;;;;13.85;3.13;;;;;;;10.60;41.41;95331.16;5004102;28;20324;-73
2023/01/02 03:19:37;;;;;;;18.67;7.75;;;;;;;10.51;41.84;95326.97;5003554;28;20135;-73
2023/01/02 03:22:07;;;;;;;12.35;3.05;;;;;;;9.26;44.14;95327.25;4986897;28;20155;-73
2023/01/02 03:24:33;;;;;;;17.80;6.60;;;;;;;9.64;44.48;95334.44;5006358;28;20570;-73
2023/01/02 03:27:01;;;;;;;13.75;6.78;;;;;;;10.30;43.10;95333.84;5006883;28;20039;-73
2023/01/02 03:29:42;;;;;;;17.90;11.32;;;;;;;10.44;42.71;95334.84;5002581;28;20077;-73
2023/01/02 03:32:49;;;;;;;27.15;12.25;;;;;;;10.00;43.27;95343.59;4999138;28;20065;-73
2023/01/02 03:35:18;;;;;;;27.13;10.40;;;;;;;9.98;42.33;95341.13;5003117;28;20128;-73
2023/01/02 03:37:46;;;;;;;25.58;7.63;;;;;;;10.10;43.39;95342.34;5000383;28;20072;-73
2023/01/02 03:40:32;;;;;;;31.90;11.95;;;;;;;10.42;42.23;95342.19;5004077;28;20453;-73
2023/01/02 03:43:09;;;;;;;26.13;11.98;;;;;;;10.47;42.36;95346.94;5001690;28;20496;-73
2023/01/02 03:45:36;;;;;;;18.83;6.93;;;;;;;10.29;42.21;95342.00;5000280;28;20069;-73
2023/01/02 03:48:09;;;;;;;11.65;3.80;;;;;;;9.50;44.58;95350.16;4973681;28;20081;-73
2023/01/02 03:50:45;;;;;;;7.53;3.08;;;;;;;9.30;44.47;95344.50;5000515;28;20073;-73
2023/01/02 03:53:11;;;;;;;20.20;14.23;;;;;;;10.12;42.96;95342.19;4988156;28;20501;-73
2023/01/02 03:55:37;;;;;;;16.10;10.35;;;;;;;10.09;43.01;95343.38;5001944;28;20064;-73
2023/01/02 03:58:14;;;;;;;11.55;3.28;;;;;;;10.08;42.70;95344.38;5000968;28;20066;-73
2023/01/02 04:00:49;;;;;;;11.25;2.92;;;;;;;10.03;42.77;95341.41;5005697;28;20551;-73
2023/01/02 04:03:21;;;;;;;17.05;4.20;;;;;;;10.08;42.86;95351.53;4998668;28;20545;-73
2023/01/02 04:06:08;;;;;;;13.10;4.40;;;;;;;10.56;41.40;95361.84;5016845;28;20098;-73
2023/01/02 04:08:48;;;;;;;12.97;5.93;;;;;;;9.91;43.68;95358.78;4987828;28;20101;-73
2023/01/02 04:11:15;;;;;;;16.48;10.60;;;;;;;10.05;42.90;95355.38;4985801;28;20029;-73
2023/01/02 04:13:42;;;;;;;7.40;3.63;;;;;;;10.54;41.58;95363.03;4988494;28;20150;-73
2023/01/02 04:16:10;;;;;;;8.88;2.90;;;;;;;9.82;43.17;95363.34;5003935;28;20084;-73
2023/01/02 04:18:43;;;;;;;11.32;2.65;;;;;;;10.06;42.90;95372.97;4984994;28;20382;-73
2023/01/02 04:21:11;;;;;;;12.65;3.42;;;;;;;9.99;42.32;95361.38;4986944;28;20377;-73
2023/01/02 04:23:39;;;;;;;14.50;4.68;;;;;;;10.03;42.75;95365.31;5001336;28;20034;-73
2023/01/02 04:26:10;;;;;;;14.48;6.78;;;;;;;9.94;43.07;95361.94;5003921;28;20080;-73
2023/01/02 04:28:36;;;;;;;9.55;3.55;;;;;;;10.51;41.74;95366.91;5007004;28;20059;-73
2023/01/02 04:31:24;;;;;;;9.52;3.10;;;;;;;10.27;42.17;95373.28;5003675;28;20039;-73
2023/01/02 04:33:52;;;;;;;10.73;5.18;;;;;;;10.57;41.55;95375.97;5005489;28;21373;-73
2023/01/02 04:36:17;;;;;;;14.05;2.95;;;;;;;9.61;42.60;95369.34;5002233;28;20068;-73
2023/01/02 04:38:43;;;;;;;15.48;8.70;;;;;;;10.29;42.01;95368.59;5007181;28;20064;-73
2023/01/02 04:41:09;;;;;;;15.10;7.60;;;;;;;10.40;41.58;95372.66;4983374;28;20122;-73
2023/01/02 04:43:34;;;;;;;10.55;3.00;;;;;;;10.15;42.33;95368.41;5003822;28;20459;-74
2023/01/02 04:46:01;;;;;;;19.88;9.38;;;;;;;10.47;41.29;95357.59;4982223;28;20110;-73
2023/01/02 04:48:26;;;;;;;12.60;2.70;;;;;;;10.54;40.74;95366.50;5002538;28;20618;-73
2023/01/02 04:50:54;;;;;;;14.00;6.93;;;;;;;10.59;40.65;95374.78;5000173;28;20046;-73
2023/01/02 04:53:20;;;;;;;7.65;2.80;;;;;;;10.13;40.91;95370.41;5003136;28;20250;-74
2023/01/02 04:55:45;;;;;;;17.20;4.57;;;;;;;10.52;40.60;95373.03;5004556;28;20059;-73
2023/01/02 04:58:11;;;;;;;10.75;3.72;;;;;;;10.77;40.62;95370.91;5003848;28;20331;-73
2023/01/02 05:00:36;;;;;;;11.20;3.97;;;;;;;9.79;42.35;95380.50;4999889;28;20082;-73
2023/01/02 05:03:02;;;;;;;14.00;6.18;;;;;;;9.67;43.41;95377.44;5004563;28;20050;-73
2023/01/02 05:05:27;;;;;;;11.63;5.70;;;;;;;10.40;41.43;95378.00;5001886;28;20071;-74
2023/01/02 05:07:52;;;;;;;14.02;8.45;;;;;;;10.64;40.96;95378.72;5003486;28;20053;-74
2023/01/02 05:10:18;;;;;;;11.93;3.95;;;;;;;10.62;40.88;95378.91;4997831;28;20221;-73
2023/01/02 05:12:43;;;;;;;15.32;3.65;;;;;;;10.69;40.73;95379.81;4999708;28;20079;-73
2023/01/02 05:15:09;;;;;;;16.77;7.75;;;;;;;10.65;40.92;95386.53;4999033;28;20167;-73
2023/01/02 05:17:35;;;;;;;15.88;8.02;;;;;;;10.87;39.79;95381.25;4983569;28;20073;-73
2023/01/02 05:20:01;;;;;;;12.82;4.60;;;;;;;10.68;39.96;95377.34;4970358;28;20077;-73
2023/01/02 05:25:11;;;;;;;18.50;7.95;;;;;;;9.45;42.25;95389.72;5001252;28;20169;-73
2023/01/02 05:27:36;;;;;;;9.73;3.55;;;;;;;10.38;40.78;95386.16;5000599;28;20057;-73
2023/01/02 05:30:02;;;;;;;13.98;3.70;;;;;;;10.52;40.32;95376.53;5002149;28;20597;-73
2023/01/02 05:32:28;;;;;;;16.60;5.47;;;;;;;10.51;40.06;95382.88;5001476;28;20070;-73
2023/01/02 05:34:53;;;;;;;14.07;3.60;;;;;;;9.88;41.75;95377.75;5002530;28;20118;-73
2023/01/02 05:37:18;;;;;;;13.60;3.80;;;;;;;8.66;44.87;95394.06;5005174;28;20079;-73
2023/01/02 05:39:44;;;;;;;12.32;4.13;;;;;;;9.54;42.61;95378.03;5001825;28;20064;-73
2023/01/02 05:42:09;;;;;;;18.95;6.30;;;;;;;9.50;42.34;95382.06;5004443;28;20089;-73
2023/01/02 05:44:34;;;;;;;9.82;4.40;;;;;;;9.84;42.05;95380.81;5002533;28;20435;-73
2023/01/02 05:47:00;;;;;;;17.52;8.38;;;;;;;9.78;41.25;95383.34;5001369;28;20058;-73
2023/01/02 05:49:25;;;;;;;11.80;4.85;;;;;;;9.73;42.04;95383.88;5006349;28;20109;-73
2023/01/02 05:51:51;;;;;;;12.75;3.20;;;;;;;10.13;40.85;95389.03;5006178;28;20445;-73
2023/01/02 05:54:16;;;;;;;9.10;4.47;;;;;;;10.17;40.94;95387.66;5002696;28;20060;-73
2023/01/02 05:56:41;;;;;;;12.60;3.58;;;;;;;10.00;41.35;95389.66;5006160;28;20084;-73
2023/01/02 05:59:07;;;;;;;11.45;4.20;;;;;;;10.45;40.25;95383.59;5016140;28;20103;-73
2023/01/02 06:01:32;;;;;;;12.43;3.30;;;;;;;10.30;40.39;95387.03;5001023;28;20068;-73
2023/01/02 06:03:58;;;;;;;18.30;8.20;;;;;;;10.29;41.94;95374.75;5008528;28;20310;-73
2023/01/02 06:06:29;;;;;;;13.25;4.63;;;;;;;10.33;41.59;95375.22;5009901;28;20042;-73
2023/01/02 06:08:54;;;;;;;9.02;2.72;;;;;;;10.31;40.59;95383.41;5013408;28;20180;-73
2023/01/02 06:11:20;;;;;;;11.45;5.43;;;;;;;10.20;41.30;95391.81;5006727;28;20072;-73
2023/01/02 06:13:45;;;;;;;16.15;3.55;;;;;;;10.14;40.82;95400.53;5003861;28;20097;-73
2023/01/02 06:16:11;;;;;;;11.40;4.13;;;;;;;10.03;41.08;95401.75;5004538;28;20316;-73
2023/01/02 06:18:37;;;;;;;14.48;2.92;;;;;;;10.26;40.48;95400.91;5003444;28;20423;-73
2023/01/02 06:21:04;;;;;;;12.93;6.97;;;;;;;10.21;41.05;95404.13;5000424;28;20064;-73
2023/01/02 06:23:30;;;;;;;12.20;4.73;;;;;;;10.52;39.90;95407.63;5002753;28;20536;-73
2023/01/02 06:25:55;;;;;;;13.00;3.10;;;;;;;10.39;39.77;95403.75;4985095;28;20107;-73
2023/01/02 06:28:21;;;;;;;14.70;4.10;;;;;;;10.08;39.87;95412.69;5002758;28;20078;-73
2023/01/02 06:30:46;;;;;;;13.10;3.92;;;;;;;10.27;39.76;95392.72;5003949;28;20683;-73
2023/01/02 06:33:11;;;;;;;12.70;4.57;;;;;;;10.44;39.08;95398.72;5003475;28;20448;-73
2023/01/02 06:35:37;;;;;;;12.80;4.43;;;;;;;10.21;40.71;95394.28;5001300;28;20080;-73
2023/01/02 06:38:02;;;;;;;9.70;3.80;;;;;;;9.78;40.55;95394.81;5003433;28;20079;-73
2023/01/02 06:40:28;;;;;;;11.30;3.30;;;;;;;9.15;41.23;95408.19;5004038;28;20074;-73
2023/01/02 06:42:53;;;;;;;16.65;3.65;;;;;;;10.21;39.90;95410.25;5004838;28;20097;-73
2023/01/02 06:45:18;;;;;;;12.77;3.28;;;;;;;10.33;39.43;95418.63;5001089;28;20068;-73
2023/01/02 06:47:44;;;;;;;15.18;3.55;;;;;;;9.74;40.56;95420.09;5002904;28;20045;-73
2023/01/02 06:50:09;;;;;;;12.60;4.07;;;;;;;9.69;40.75;95417.97;5000606;28;20038;-73
2023/01/02 06:52:35;;;;;;;15.35;2.97;;;;;;;9.72;39.69;95419.44;5001841;28;20073;-73
2023/01/02 06:55:00;;;;;;;11.13;3.55;;;;;;;9.60;41.00;95408.41;5003724;28;20058;-73
2023/01/02 06:57:28;;;;;;;11.18;3.85;;;;;;;9.76;40.31;95410.09;5001709;28;20077;-73
2023/01/02 06:59:53;;;;;;;15.70;4.03;;;;;;;10.02;39.54;95411.56;5001913;28;20143;-73
2023/01/02 07:02:19;;;;;;;11.98;4.10;;;;;;;10.13;39.88;95405.00;5009982;28;20043;-73
2023/01/02 07:04:44;;;;;;;14.98;3.13;;;;;;;9.78;40.43;95393.97;5008249;28;20069;-73
2023/01/02 07:07:10;;;;;;;14.32;3.15;;;;;;;10.50;38.56;95375.88;5002823;28;20030;-73
2023/01/02 07:09:35;;;;;;;10.75;3.00;;;;;;;8.29;42.58;95391.84;5005303;28;20532;-73
2023/01/02 07:12:00;;;;;;;11.60;3.03;;;;;;;9.90;39.81;95373.09;5002571;28;20468;-73
2023/01/02 07:14:26;;;;;;;11.90;3.10;;;;;;;9.82;39.29;95385.47;5001674;28;20048;-73
2023/01/02 07:16:51;;;;;;;10.25;2.80;;;;;;;8.80;41.96;95388.03;5002238;28;20577;-73
2023/01/02 07:19:17;;;;;;;17.55;2.55;;;;;;;9.05;41.48;95390.59;5003052;28;20066;-73
2023/01/02 07:21:42;;;;;;;8.73;4.22;;;;;;;8.89;42.46;95394.16;5003597;28;20086;-73
2023/01/02 07:24:12;;;;;;;12.20;4.72;;;;;;;9.29;40.93;95402.09;5002805;28;20611;-73
2023/01/02 07:26:37;;;;;;;14.73;3.38;;;;;;;9.69;40.28;95393.22;5006398;28;20055;-73
2023/01/02 07:29:03;;;;;;;18.15;4.97;;;;;;;9.51;39.52;95399.66;5005098;28;20067;-73
2023/01/02 07:31:28;;;;;;;14.60;3.20;;;;;;;9.69;40.05;95395.88;5006507;28;20091;-73
2023/01/02 07:33:54;;;;;;;14.05;3.72;;;;;;;10.48;38.63;95399.19;5001949;28;20094;-73
2023/01/02 07:36:21;;;;;;;13.43;3.50;;;;;;;10.52;38.48;95400.47;5004552;28;20071;-73
2023/01/02 07:38:53;;;;;;;20.35;2.88;;;;;;;10.23;38.89;95410.06;5008867;28;20431;-73
2023/01/02 07:41:21;;;;;;;11.60;2.83;;;;;;;9.14;40.16;95417.13;5003203;28;20079;-73
2023/01/02 07:43:46;;;;;;;10.95;2.92;;;;;;;8.94;41.79;95417.50;4999550;28;20125;-73
2023/01/02 07:46:12;;;;;;;10.65;2.80;;;;;;;10.25;38.96;95426.69;5001251;28;20060;-73
2023/01/02 07:48:38;;;;;;;11.88;2.72;;;;;;;10.10;39.13;95430.13;5004934;28;20602;-73
2023/01/02 07:51:04;;;;;;;13.43;2.92;;;;;;;8.99;41.38;95430.31;5005978;28;20047;-73
2023/01/02 07:53:30;;;;;;;14.68;2.80;;;;;;;9.40;40.41;95442.56;5002832;28;20411;-73
2023/01/02 07:55:56;;;;;;;12.10;2.80;;;;;;;10.10;39.24;95422.16;4983725;28;20452;-73
2023/01/02 07:58:21;;;;;;;10.43;2.80;;;;;;;10.06;39.43;95422.69;5004614;28;20063;-73
2023/01/02 08:00:47;;;;;;;10.07;3.25;;;;;;;10.13;39.42;95417.50;5002532;28;20071;-73
2023/01/02 08:03:12;;;;;;;9.93;2.88;;;;;;;9.83;39.13;95419.00;5008697;28;20091;-73
2023/01/02 08:05:37;;;;;;;8.38;2.50;;;;;;;9.62;39.77;95440.94;5001440;28;20081;-73
2023/01/02 08:08:03;;;;;;;13.45;2.50;;;;;;;9.54;40.06;95448.97;5002907;28;20055;-73
2023/01/02 08:10:28;;;;;;;12.93;2.97;;;;;;;9.59;39.72;95433.34;5007689;28;20557;-73
2023/01/02 08:12:56;;;;;;;13.98;2.60;;;;;;;9.45;40.41;95438.38;4998793;28;20083;-73
2023/01/02 08:15:21;;;;;;;14.90;3.25;;;;;;;9.10;40.65;95445.03;4986717;28;20058;-74
2023/01/02 08:17:47;;;;;;;12.20;2.95;;;;;;;8.78;42.53;95435.16;5001315;28;20177;-73
2023/01/02 08:20:12;;;;;;;9.95;2.80;;;;;;;9.37;40.62;95448.22;5006625;28;20064;-73
2023/01/02 08:22:37;;;;;;;8.07;2.47;;;;;;;8.96;41.75;95442.09;5002941;28;20055;-73
2023/01/02 08:25:03;;;;;;;8.05;2.55;;;;;;;9.27;40.91;95446.63;5001468;28;20399;-73
2023/01/02 08:27:29;;;;;;;13.45;2.72;;;;;;;9.43;40.54;95452.84;5001523;28;20150;-73
2023/01/02 08:29:54;;;;;;;11.15;2.80;;;;;;;8.79;41.78;95451.91;5004759;28;20080;-73
2023/01/02 08:32:19;;;;;;;15.65;2.90;;;;;;;8.56;43.31;95453.47;4985701;28;20067;-73
2023/01/02 08:34:45;;;;;;;9.98;2.55;;;;;;;7.98;44.28;95463.31;5010107;28;20066;-73
2023/01/02 08:37:10;;;;;;;12.77;2.85;;;;;;;8.32;43.44;95469.44;5008109;28;20084;-73
2023/01/02 08:39:35;;;;;;;11.27;2.90;;;;;;;8.77;42.20;95461.91;5005037;28;20481;-73
2023/01/02 08:42:01;;;;;;;11.60;3.10;;;;;;;9.14;41.67;95467.59;5005087;28;20099;-73
2023/01/02 08:44:26;;;;;;;12.60;2.80;;;;;;;9.28;41.14;95474.84;4989021;28;20082;-73
2023/01/02 08:46:52;;;;;;;7.28;2.47;;;;;;;9.04;41.49;95479.25;5007562;28;20064;-73
2023/01/02 08:49:17;;;;;;;9.80;2.58;;;;;;;8.62;42.84;95493.59;5005447;28;20079;-73
2023/01/02 08:51:42;;;;;;;14.70;3.30;;;;;;;8.15;43.99;95511.88;5011533;28;20451;-73
2023/01/02 08:54:08;;;;;;;10.35;3.20;;;;;;;7.94;46.09;95504.38;4992940;28;20080;-73
2023/01/02 08:56:34;;;;;;;13.60;3.08;;;;;;;7.94;45.83;95493.78;5005240;28;20356;-73
2023/01/02 08:59:04;;;;;;;9.18;2.58;;;;;;;7.39;48.13;95500.25;5009198;28;20064;-73
2023/01/02 09:01:30;;;;;;;7.45;2.80;;;;;;;7.11;49.36;95491.75;5031140;28;20116;-73
2023/01/02 09:03:55;;;;;;;9.77;2.83;;;;;;;7.26;48.64;95510.50;4992161;28;20072;-73
2023/01/02 09:06:22;;;;;;;12.90;3.17;;;;;;;7.61;48.25;95508.63;4998439;28;20166;-73
2023/01/02 09:08:47;;;;;;;13.68;2.63;;;;;;;6.83;49.38;95510.47;5012741;28;20527;-73
2023/01/02 09:11:14;;;;;;;9.95;3.67;;;;;;;7.71;47.71;95512.94;4999037;28;20065;-73
2023/01/02 09:13:40;;;;;;;14.35;3.63;;;;;;;6.82;49.92;95522.03;4992471;28;20070;-73
2023/01/02 09:16:06;;;;;;;13.20;3.50;;;;;;;6.67;50.92;95527.91;5009635;28;20645;-73
2023/01/02 09:18:31;;;;;;;11.10;2.65;;;;;;;7.17;51.21;95536.09;5004507;28;20058;-73
2023/01/02 09:20:56;;;;;;;14.20;3.33;;;;;;;7.66;49.28;95521.38;4970284;28;20097;-73
2023/01/02 09:23:22;;;;;;;10.25;2.90;;;;;;;7.95;49.30;95519.31;5003294;28;20553;-73
2023/01/02 09:25:47;;;;;;;8.88;2.78;;;;;;;7.58;49.05;95527.47;5003946;28;20405;-73
2023/01/02 09:28:12;;;;;;;10.40;2.88;;;;;;;7.89;48.46;95534.06;5008176;28;20442;-73
2023/01/02 09:30:38;;;;;;;7.47;2.50;;;;;;;7.63;50.42;95535.78;5005557;28;20067;-73
2023/01/02 09:33:03;;;;;;;8.48;2.65;;;;;;;6.96;51.07;95547.06;5001810;28;20088;-73
2023/01/02 09:35:29;;;;;;;11.98;3.40;;;;;;;7.71;49.46;95544.72;4987397;28;20076;-73
2023/01/02 09:37:54;;;;;;;13.02;3.42;;;;;;;7.46;49.83;95545.50;5003286;28;20156;-73
2023/01/02 09:40:20;;;;;;;11.25;3.20;;;;;;;8.16;48.79;95546.19;5006652;28;20577;-74
2023/01/02 09:42:45;;;;;;;9.07;3.08;;;;;;;7.73;48.29;95551.56;4987473;28;20305;-74
2023/01/02 09:45:10;;;;;;;17.00;3.22;;;;;;;8.43;47.67;95546.00;4984829;28;20086;-74
2023/01/02 09:47:36;;;;;;;13.45;3.20;;;;;;;8.63;46.80;95551.81;5003660;28;20302;-73
2023/01/02 09:50:03;;;;;;;11.40;2.97;;;;;;;7.95;48.47;95565.19;5008108;28;20277;-73
2023/01/02 09:52:32;;;;;;;10.50;3.53;;;;;;;8.37;47.39;95538.75;4997205;28;20595;-73
2023/01/02 09:54:57;;;;;;;12.27;2.95;;;;;;;7.40;49.00;95559.38;5005546;28;20064;-73
2023/01/02 09:57:25;;;;;;;16.15;3.13;;;;;;;7.08;49.75;95561.72;4997939;28;20085;-73
2023/01/02 10:00:27;;;;;;;14.32;3.15;;;;;;;6.96;51.20;95565.59;5004654;28;20120;-73
2023/01/02 10:03:43;;;;;;;11.93;3.42;;;;;;;6.64;51.28;95559.97;4999904;28;20063;-73
2023/01/02 10:06:12;;;;;;;10.57;3.13;;;;;;;6.34;52.09;95552.28;4996902;28;20092;-74
2023/01/02 10:08:58;;;;;;;13.95;2.90;;;;;;;6.63;52.11;95550.34;5006763;28;20593;-74
2023/01/02 10:11:30;;;;;;;14.10;2.85;;;;;;;6.75;54.04;95550.94;5000923;28;20142;-73
2023/01/02 10:14:00;;;;;;;12.73;3.00;;;;;;;6.17;54.61;95556.59;5003750;28;20080;-74
2023/01/02 10:16:38;;;;;;;14.85;3.20;;;;;;;6.74;53.55;95550.09;4983470;28;20080;-74
2023/01/02 10:19:07;;;;;;;7.13;2.47;;;;;;;6.89;52.48;95546.88;4980825;28;20076;-73
2023/01/02 10:21:33;;;;;;;17.88;3.30;;;;;;;5.88;54.14;95564.72;4984572;28;20458;-73
2023/01/02 10:24:05;;;;;;;8.80;3.03;;;;;;;6.17;54.78;95563.66;4989957;28;20075;-73
2023/01/02 10:26:35;;;;;;;8.38;2.70;;;;;;;6.10;56.60;95566.09;4986766;28;20077;-73
2023/01/02 10:29:04;;;;;;;11.63;3.03;;;;;;;5.43;58.66;95565.41;5001688;28;20546;-73
2023/01/02 10:31:30;;;;;;;;;;;;;;;6.01;56.93;95569.66;5000015;28;20542;-72
2023/01/02 10:33:56;;;;;;;7.78;2.08;;;;;;;6.28;57.99;95565.25;5003755;28;19970;-73
2023/01/02 10:36:25;;;;;;;7.60;2.42;;;;;;;5.71;58.69;95572.47;5003814;28;20144;-73
2023/01/02 10:38:50;;;;;;;;;;;;;;;6.23;57.37;95569.19;5004200;28;20061;-73
2023/01/02 10:41:16;;;;;;;9.70;2.33;;;;;;;6.32;57.11;95569.28;4999414;28;20428;-72
2023/01/02 10:43:50;;;;;;;8.27;2.65;;;;;;;6.18;57.70;95574.09;4980142;28;20814;-72
2023/01/02 10:46:16;;;;;;;7.60;2.72;;;;;;;5.78;59.05;95573.53;4999788;28;20125;-72
2023/01/02 10:48:41;;;;;;;11.63;4.00;;;;;;;4.99;61.51;95573.88;5002926;28;20472;-72
2023/01/02 10:51:11;;;;;;;10.52;2.92;;;;;;;6.13;58.95;95571.09;4989386;28;20266;-73
2023/01/02 10:53:37;;;;;;;9.05;2.70;;;;;;;5.71;59.95;95564.53;5002550;28;20149;-73
2023/01/02 10:56:13;;;;;;;10.05;2.85;;;;;;;5.83;59.48;95565.16;5011361;28;20370;-72
2023/01/02 10:58:44;;;;;;;8.40;2.22;;;;;;;6.08;59.15;95560.13;5008852;28;20075;-72
2023/01/02 11:01:19;;;;;;;8.00;2.55;;;;;;;5.29;62.04;95579.06;4991794;28;20091;-73
2023/01/02 11:03:46;;;;;;;8.55;2.47;;;;;;;4.88;62.79;95577.53;4974364;28;20137;-72
2023/01/02 11:06:39;;;;;;;10.15;2.50;;;;;;;5.06;63.47;95571.53;4989754;28;20607;-72
2023/01/02 11:09:22;;;;;;;10.75;3.03;;;;;;;5.18;63.29;95577.47;5005399;28;20391;-72
2023/01/02 11:11:58;;;;;;;8.18;2.13;;;;;;;5.52;62.02;95578.69;4975023;28;20181;-73
2023/01/02 11:14:30;;;;;;;13.80;2.95;;;;;;;5.10;63.42;95580.81;5005827;28;20082;-72
2023/01/02 11:17:00;;;;;;;10.18;2.90;;;;;;;5.55;61.67;95594.25;5012985;28;20088;-71
2023/01/02 11:19:26;;;;;;;8.07;2.50;;;;;;;5.15;64.06;95583.88;4984361;28;20100;-71
2023/01/02 11:21:51;;;;;;;15.15;2.90;;;;;;;5.30;63.22;95584.22;5014820;28;20093;-72
2023/01/02 11:24:18;;;;;;;10.65;3.08;;;;;;;5.33;63.34;95586.56;5010856;28;20088;-72
2023/01/02 11:26:47;;;;;;;7.13;2.33;;;;;;;5.33;63.50;95589.22;5010716;28;20101;-71
2023/01/02 11:29:31;;;;;;;6.97;2.50;;;;;;;5.34;62.64;95582.13;5008216;28;20550;-72
2023/01/02 11:31:58;;;;;;;9.93;2.90;;;;;;;4.37;66.12;95590.94;5007811;28;20126;-72
2023/01/02 11:34:28;;;;;;;7.68;2.83;;;;;;;4.71;66.61;95593.13;4979743;28;20538;-71
2023/01/02 11:37:12;;;;;;;6.25;2.30;;;;;;;4.47;67.38;95601.47;5008458;28;20561;-72
2023/01/02 11:39:37;;;;;;;8.13;3.10;;;;;;;4.52;68.12;95598.44;5018993;28;20071;-72
2023/01/02 11:45:21;;;;;;;6.20;2.20;;;;;;;5.01;67.07;95608.88;4999359;28;20104;-72